createdAt,value
2023-02-08T00:01:25.756Z,13.03
2023-02-08T00:06:51.438Z,20.10
2023-02-08T00:09:20.183Z,14.70
2023-02-08T00:11:47.639Z,14.40
2023-02-08T00:14:15.070Z,13.93
2023-02-08T00:19:41.465Z,12.67
2023-02-08T00:22:09.177Z,12.37
2023-02-08T00:24:37.952Z,11.37
2023-02-08T00:27:05.378Z,11.87
2023-02-08T00:29:33.473Z,11.70
2023-02-08T00:32:01.902Z,13.23
2023-02-08T00:37:28.421Z,11.47
2023-02-08T00:39:58.621Z,11.13
2023-02-08T00:42:26.721Z,12.20
2023-02-08T00:44:55.205Z,12.63
2023-02-08T00:47:22.699Z,11.67
2023-02-08T00:49:50.155Z,11.87
2023-02-08T00:52:17.640Z,11.50
2023-02-08T00:54:45.242Z,12.37
2023-02-08T00:57:14.398Z,11.83
2023-02-08T00:59:41.861Z,10.90
2023-02-08T01:05:12.391Z,11.17
2023-02-08T01:07:40.890Z,11.60
2023-02-08T01:10:12.304Z,10.50
2023-02-08T01:12:41.076Z,10.20
2023-02-08T01:15:09.677Z,11.63
2023-02-08T01:17:37.106Z,11.77
2023-02-08T01:20:04.794Z,11.73
2023-02-08T01:22:32.266Z,10.50
2023-02-08T01:25:01.948Z,11.10
2023-02-08T01:27:30.261Z,10.83
2023-02-08T01:29:59.017Z,10.83
2023-02-08T01:32:26.431Z,11.20
2023-02-08T01:34:54.562Z,10.37
2023-02-08T01:37:21.992Z,11.03
2023-02-08T01:39:49.444Z,8.80
2023-02-08T01:42:42.029Z,10.55
2023-02-08T01:45:29.818Z,9.30
2023-02-08T01:48:02.569Z,9.93
2023-02-08T01:50:33.958Z,9.27
2023-02-08T01:53:03.027Z,9.37
2023-02-08T01:58:37.484Z,10.40
2023-02-08T02:01:06.774Z,8.37
2023-02-08T02:03:35.006Z,9.57
2023-02-08T02:06:05.087Z,9.63
2023-02-08T02:11:35.671Z,10.13
2023-02-08T02:14:04.384Z,9.70
2023-02-08T02:16:33.283Z,10.67
2023-02-08T02:19:00.764Z,11.20
2023-02-08T02:25:00.058Z,9.43
2023-02-08T02:27:32.982Z,9.17
2023-02-08T02:30:06.073Z,10.13
2023-02-08T02:32:52.340Z,9.67
2023-02-08T02:35:27.065Z,9.30
2023-02-08T02:38:02.852Z,9.60
2023-02-08T02:40:35.590Z,9.57
2023-02-08T02:43:27.238Z,8.67
2023-02-08T02:48:51.087Z,7.93
2023-02-08T02:51:21.458Z,7.97
2023-02-08T02:56:50.159Z,7.87
2023-02-08T02:59:18.330Z,8.53
2023-02-08T03:01:46.553Z,8.27
2023-02-08T03:04:17.363Z,8.40
2023-02-08T03:09:53.913Z,9.43
2023-02-08T03:12:32.030Z,8.53
2023-02-08T03:15:04.350Z,9.80
2023-02-08T03:17:42.511Z,9.23
2023-02-08T03:20:15.037Z,9.93
2023-02-08T03:22:46.663Z,9.53
2023-02-08T03:25:18.712Z,9.87
2023-02-08T03:30:51.247Z,9.03
2023-02-08T03:33:22.165Z,9.80
2023-02-08T03:38:31.089Z,10.10
2023-02-08T03:41:00.308Z,10.07
2023-02-08T03:43:30.282Z,9.57
2023-02-08T03:46:03.098Z,11.57
2023-02-08T03:48:31.747Z,10.50
2023-02-08T03:50:59.660Z,10.30
2023-02-08T03:53:29.957Z,10.27
2023-02-08T03:56:01.439Z,9.80
2023-02-08T03:58:32.415Z,9.07
2023-02-08T04:01:05.623Z,9.53
2023-02-08T04:03:34.128Z,8.17
2023-02-08T04:06:01.765Z,8.63
2023-02-08T04:08:30.982Z,9.00
2023-02-08T04:10:59.148Z,8.97
2023-02-08T04:13:26.562Z,8.67
2023-02-08T04:19:00.710Z,9.67
2023-02-08T04:21:28.385Z,9.67
2023-02-08T04:23:57.135Z,10.27
2023-02-08T04:26:24.560Z,9.67
2023-02-08T04:28:51.984Z,9.43
2023-02-08T04:31:20.854Z,9.90
2023-02-08T04:33:48.438Z,9.47
2023-02-08T04:36:15.852Z,9.50
2023-02-08T04:41:43.043Z,10.87
2023-02-08T04:44:10.493Z,9.63
2023-02-08T04:46:37.979Z,10.67
2023-02-08T04:49:05.384Z,10.30
2023-02-08T04:51:32.813Z,10.17
2023-02-08T04:54:00.324Z,10.80
2023-02-08T04:56:27.741Z,11.63
2023-02-08T04:58:56.525Z,11.40
2023-02-08T05:01:24.148Z,10.60
2023-02-08T05:03:51.609Z,10.37
2023-02-08T05:06:19.054Z,9.80
2023-02-08T05:08:46.532Z,8.87
2023-02-08T05:11:13.997Z,9.93
2023-02-08T05:13:41.449Z,9.30
2023-02-08T05:16:10.278Z,10.63
2023-02-08T05:21:27.794Z,10.17
2023-02-08T05:23:55.232Z,10.17
2023-02-08T05:26:23.028Z,9.43
2023-02-08T05:31:54.605Z,9.77
2023-02-08T05:34:22.104Z,9.97
2023-02-08T05:36:49.531Z,10.13
2023-02-08T05:39:17.027Z,9.80
2023-02-08T05:41:44.490Z,9.87
2023-02-08T05:47:16.290Z,8.83
2023-02-08T05:49:43.711Z,10.10
2023-02-08T05:52:11.312Z,9.53
2023-02-08T05:54:38.758Z,10.30
2023-02-08T05:57:06.446Z,11.73
2023-02-08T05:59:33.887Z,10.13
2023-02-08T06:02:01.407Z,10.47
2023-02-08T06:07:33.030Z,9.83
2023-02-08T06:10:00.433Z,10.07
2023-02-08T06:12:27.850Z,9.63
2023-02-08T06:14:56.791Z,9.97
2023-02-08T06:17:24.296Z,9.60
2023-02-08T06:19:51.735Z,9.40
2023-02-08T06:22:19.145Z,9.80
2023-02-08T06:27:36.065Z,8.73
2023-02-08T06:30:03.828Z,8.63
2023-02-08T06:32:31.428Z,8.87
2023-02-08T06:37:47.683Z,7.97
2023-02-08T06:40:15.228Z,8.80
2023-02-08T06:42:44.018Z,9.27
2023-02-08T06:45:13.582Z,9.13
2023-02-08T06:47:41.251Z,9.23
2023-02-08T06:50:09.553Z,9.47
2023-02-08T06:52:37.501Z,10.67
2023-02-08T06:55:05.471Z,8.53
2023-02-08T07:00:29.838Z,9.17
2023-02-08T07:02:57.318Z,9.73
2023-02-08T07:05:24.728Z,8.70
2023-02-08T07:07:53.438Z,9.77
2023-02-08T07:10:46.399Z,9.70
2023-02-08T07:13:13.936Z,9.83
2023-02-08T07:15:42.727Z,9.60
2023-02-08T07:18:10.181Z,9.93
2023-02-08T07:20:37.741Z,10.37
2023-02-08T07:26:00.302Z,9.77
2023-02-08T07:28:27.981Z,8.40
2023-02-08T07:30:57.305Z,10.50
2023-02-08T07:33:25.659Z,9.73
2023-02-08T07:35:53.194Z,10.87
2023-02-08T07:38:21.046Z,10.07
2023-02-08T07:40:48.537Z,10.73
2023-02-08T07:43:15.974Z,10.33
2023-02-08T07:45:53.643Z,10.17
2023-02-08T07:48:22.413Z,10.83
2023-02-08T07:50:49.901Z,10.30
2023-02-08T07:53:17.744Z,10.23
2023-02-08T07:55:46.678Z,10.27
2023-02-08T07:58:15.391Z,10.80
2023-02-08T08:00:43.035Z,10.27
2023-02-08T08:03:10.502Z,11.77
2023-02-08T08:05:41.004Z,12.03
2023-02-08T08:08:08.799Z,11.00
2023-02-08T08:10:36.301Z,10.37
2023-02-08T08:13:04.059Z,10.27
2023-02-08T08:18:22.197Z,12.80
2023-02-08T08:20:50.971Z,12.67
2023-02-08T08:23:19.478Z,13.70
2023-02-08T08:25:46.927Z,13.90
2023-02-08T08:28:14.588Z,16.40
2023-02-08T08:30:44.202Z,15.23
2023-02-08T08:33:11.765Z,13.77
2023-02-08T08:35:39.164Z,14.47
2023-02-08T08:38:07.926Z,14.73
2023-02-08T08:40:51.368Z,14.53
2023-02-08T08:43:19.214Z,15.73
2023-02-08T08:48:46.658Z,15.10
2023-02-08T08:51:14.866Z,15.63
2023-02-08T08:53:44.064Z,15.00
2023-02-08T08:56:11.551Z,15.93
2023-02-08T08:58:39.028Z,16.43
2023-02-08T09:01:06.646Z,17.20
2023-02-08T09:03:34.224Z,17.43
2023-02-08T09:06:01.709Z,16.10
2023-02-08T09:08:29.204Z,16.40
2023-02-08T09:10:58.028Z,16.73
2023-02-08T09:13:25.463Z,16.83
2023-02-08T09:15:52.957Z,14.83
2023-02-08T09:21:09.810Z,17.00
2023-02-08T09:23:37.949Z,18.07
2023-02-08T09:26:08.470Z,17.80
2023-02-08T09:28:35.930Z,17.63
2023-02-08T09:31:08.598Z,16.97
2023-02-08T09:34:00.135Z,16.63
2023-02-08T09:36:29.405Z,16.40
2023-02-08T09:39:00.189Z,17.23
2023-02-08T09:41:56.107Z,17.03
2023-02-08T09:44:30.198Z,16.57
2023-02-08T09:46:59.865Z,16.43
2023-02-08T09:49:30.574Z,17.40
2023-02-08T09:51:59.457Z,16.43
2023-02-08T09:54:29.572Z,16.83
2023-02-08T09:56:59.915Z,17.00
2023-02-08T09:59:53.415Z,17.40
2023-02-08T10:02:24.715Z,15.87
2023-02-08T10:05:01.245Z,17.40
2023-02-08T10:07:29.455Z,17.97
2023-02-08T10:09:58.846Z,17.00
2023-02-08T10:12:36.408Z,17.73
2023-02-08T10:15:13.014Z,17.37
2023-02-08T10:17:51.048Z,17.50
2023-02-08T10:20:26.668Z,17.37
2023-02-08T10:23:02.526Z,17.90
2023-02-08T10:25:46.458Z,17.77
2023-02-08T10:28:37.494Z,16.13
2023-02-08T10:31:11.622Z,17.47
2023-02-08T10:33:45.236Z,18.63
2023-02-08T10:36:15.594Z,17.40
2023-02-08T10:38:46.897Z,17.07
2023-02-08T10:41:18.154Z,17.43
2023-02-08T10:43:49.959Z,18.23
2023-02-08T10:46:23.471Z,18.47
2023-02-08T10:49:01.194Z,16.67
2023-02-08T10:51:29.723Z,17.90
2023-02-08T10:53:57.573Z,16.93
2023-02-08T10:56:36.559Z,17.33
2023-02-08T10:59:12.612Z,15.63
2023-02-08T11:01:40.197Z,16.77
2023-02-08T11:07:20.399Z,16.83
2023-02-08T11:12:55.891Z,16.37
2023-02-08T11:15:26.961Z,15.70
2023-02-08T11:21:08.157Z,16.17
2023-02-08T11:23:37.711Z,15.33
2023-02-08T11:26:17.478Z,14.77
2023-02-08T11:28:45.234Z,14.83
2023-02-08T11:31:19.751Z,15.03
2023-02-08T11:34:00.413Z,15.50
2023-02-08T11:36:30.221Z,14.67
2023-02-08T11:42:02.995Z,15.33
2023-02-08T11:44:32.421Z,15.83
2023-02-08T11:47:03.796Z,15.77
2023-02-08T11:49:38.218Z,15.67
2023-02-08T11:55:14.003Z,14.70
2023-02-08T11:57:54.177Z,14.47
2023-02-08T12:00:23.578Z,15.10
2023-02-08T12:02:52.451Z,15.00
2023-02-08T12:08:15.214Z,14.47
2023-02-08T12:10:56.901Z,15.00
2023-02-08T12:13:33.452Z,14.43
2023-02-08T12:16:08.102Z,14.03
2023-02-08T12:19:02.163Z,13.57
2023-02-08T12:21:34.078Z,14.30
2023-02-08T12:24:04.033Z,14.27
2023-02-08T12:26:44.042Z,15.87
2023-02-08T12:29:23.167Z,15.83
2023-02-08T12:32:07.299Z,16.07
2023-02-08T12:34:57.549Z,17.60
2023-02-08T12:37:54.486Z,17.97
2023-02-08T12:43:47.073Z,14.30
2023-02-08T12:46:34.421Z,14.23
2023-02-08T12:49:11.809Z,14.17
2023-02-08T12:51:48.311Z,15.10
2023-02-08T12:54:29.387Z,14.20
2023-02-08T12:57:02.538Z,15.03
2023-02-08T12:59:34.480Z,14.53
2023-02-08T13:02:05.011Z,13.13
2023-02-08T13:04:46.399Z,13.20
2023-02-08T13:07:18.414Z,13.40
2023-02-08T13:09:49.800Z,13.13
2023-02-08T13:12:20.539Z,12.70
2023-02-08T13:17:55.268Z,12.43
2023-02-08T13:23:34.767Z,12.80
2023-02-08T13:26:07.570Z,12.87
2023-02-08T13:28:51.343Z,12.33
2023-02-08T13:31:21.738Z,13.23
2023-02-08T13:34:01.380Z,12.80
2023-02-08T13:36:31.404Z,13.60
2023-02-08T13:39:01.483Z,13.17
2023-02-08T13:41:29.919Z,13.27
2023-02-08T13:43:59.640Z,12.80
2023-02-08T13:46:29.188Z,12.73
2023-02-08T13:48:59.867Z,13.07
2023-02-08T13:51:58.490Z,13.23
2023-02-08T13:54:27.380Z,12.53
2023-02-08T14:00:23.302Z,13.43
2023-02-08T14:03:00.006Z,13.03
2023-02-08T14:05:45.151Z,13.43
2023-02-08T14:08:20.924Z,11.93
2023-02-08T14:11:00.767Z,11.73
2023-02-08T14:13:30.339Z,12.23
2023-02-08T14:16:27.684Z,12.33
2023-02-08T14:18:56.620Z,12.30
2023-02-08T14:21:31.587Z,12.13
2023-02-08T14:24:04.389Z,11.43
2023-02-08T14:29:24.134Z,11.93
2023-02-08T14:31:52.208Z,12.30
2023-02-08T14:37:29.563Z,11.60
2023-02-08T14:40:32.453Z,11.57
2023-02-08T14:43:01.255Z,11.10
2023-02-08T14:45:32.256Z,11.27
2023-02-08T14:48:05.158Z,11.60
2023-02-08T14:50:39.977Z,12.07
2023-02-08T14:53:13.398Z,11.93
2023-02-08T14:55:45.769Z,12.17
2023-02-08T14:58:16.685Z,11.80
2023-02-08T15:00:45.982Z,11.57
2023-02-08T15:03:15.870Z,11.77
2023-02-08T15:05:47.744Z,12.00
2023-02-08T15:08:21.184Z,13.07
2023-02-08T15:10:51.695Z,12.60
2023-02-08T15:13:21.786Z,11.70
2023-02-08T15:15:54.273Z,12.33
2023-02-08T15:18:24.486Z,11.70
2023-02-08T15:21:02.528Z,11.73
2023-02-08T15:23:30.615Z,12.20
2023-02-08T15:26:00.933Z,11.33
2023-02-08T15:28:29.904Z,12.50
2023-02-08T15:31:01.272Z,12.67
2023-02-08T15:33:28.966Z,12.00
2023-02-08T15:35:58.475Z,12.27
2023-02-08T15:38:25.987Z,11.77
2023-02-08T15:43:51.392Z,11.33
2023-02-08T15:46:22.528Z,11.90
2023-02-08T15:48:51.123Z,11.40
2023-02-08T15:51:20.341Z,11.57
2023-02-08T15:56:42.403Z,11.77
2023-02-08T15:59:21.934Z,12.07
2023-02-08T16:01:51.196Z,12.27
2023-02-08T16:04:19.526Z,13.13
2023-02-08T16:06:49.898Z,12.73
2023-02-08T16:09:19.712Z,12.70
2023-02-08T16:11:49.775Z,11.97
2023-02-08T16:14:19.041Z,12.27
2023-02-08T16:16:48.745Z,12.17
2023-02-08T16:22:26.561Z,11.80
2023-02-08T16:27:53.711Z,12.40
2023-02-08T16:30:22.923Z,12.83
2023-02-08T16:32:50.668Z,10.37
2023-02-08T16:35:24.456Z,10.97
2023-02-08T16:37:58.910Z,10.30
2023-02-08T16:40:43.609Z,10.10
2023-02-08T16:43:23.509Z,10.83
2023-02-08T16:46:17.377Z,10.10
2023-02-08T16:51:26.611Z,9.57
2023-02-08T16:53:57.718Z,9.90
2023-02-08T16:56:25.471Z,10.10
2023-02-08T16:58:53.078Z,10.60
2023-02-08T17:01:21.179Z,9.60
2023-02-08T17:03:49.987Z,9.53
2023-02-08T17:06:22.978Z,9.53
2023-02-08T17:08:50.410Z,9.63
2023-02-08T17:11:19.153Z,10.17
2023-02-08T17:13:46.741Z,10.83
2023-02-08T17:16:19.015Z,10.67
2023-02-08T17:18:46.612Z,9.93
2023-02-08T17:21:14.391Z,9.97
2023-02-08T17:23:42.048Z,8.97
2023-02-08T17:26:14.909Z,8.93
2023-02-08T17:28:44.448Z,9.03
2023-02-08T17:31:13.067Z,8.77
2023-02-08T17:33:41.172Z,8.60
2023-02-08T17:36:09.634Z,8.60
2023-02-08T17:38:38.977Z,8.57
2023-02-08T17:41:06.891Z,8.43
2023-02-08T17:43:36.999Z,7.67
2023-02-08T17:46:10.717Z,7.93
2023-02-08T17:51:38.452Z,7.43
2023-02-08T17:54:06.759Z,6.87
2023-02-08T17:56:35.413Z,7.40
2023-02-08T17:59:05.195Z,6.97
2023-02-08T18:01:34.938Z,7.37
2023-02-08T18:04:02.923Z,7.23
2023-02-08T18:09:26.167Z,7.70
2023-02-08T18:11:53.562Z,7.60
2023-02-08T18:14:22.411Z,7.60
2023-02-08T18:16:51.201Z,7.17
2023-02-08T18:19:18.782Z,7.40
2023-02-08T18:21:46.214Z,7.80
2023-02-08T18:24:13.628Z,7.27
2023-02-08T18:26:41.112Z,7.00
2023-02-08T18:29:08.786Z,7.27
2023-02-08T18:31:36.501Z,7.87
2023-02-08T18:34:05.455Z,7.43
2023-02-08T18:39:31.924Z,7.47
2023-02-08T18:41:59.334Z,7.87
2023-02-08T18:44:26.818Z,7.63
2023-02-08T18:46:54.256Z,7.73
2023-02-08T18:49:23.692Z,7.13
2023-02-08T18:51:51.120Z,6.87
2023-02-08T18:57:09.413Z,7.73
2023-02-08T18:59:37.085Z,7.73
2023-02-08T19:02:05.498Z,8.53
2023-02-08T19:07:38.663Z,8.43
2023-02-08T19:10:07.014Z,8.30
2023-02-08T19:12:36.463Z,8.17
2023-02-08T19:15:03.948Z,8.43
2023-02-08T19:17:31.497Z,7.97
2023-02-08T19:19:58.913Z,7.50
2023-02-08T19:22:26.512Z,8.07
2023-02-08T19:24:55.269Z,8.03
2023-02-08T19:27:22.765Z,8.17
2023-02-08T19:29:52.358Z,8.10
2023-02-08T19:32:19.824Z,8.40
2023-02-08T19:37:36.632Z,8.43
2023-02-08T19:40:05.989Z,9.10
2023-02-08T19:42:33.500Z,8.90
2023-02-08T19:48:03.681Z,8.10
2023-02-08T19:50:31.166Z,8.40
2023-02-08T19:56:03.759Z,8.43
2023-02-08T19:58:31.960Z,8.33
2023-02-08T20:00:59.639Z,8.03
2023-02-08T20:03:27.298Z,7.87
2023-02-08T20:05:55.685Z,7.20
2023-02-08T20:08:27.370Z,8.97
2023-02-08T20:10:56.029Z,8.43
2023-02-08T20:14:00.584Z,8.50
2023-02-08T20:16:31.793Z,8.73
2023-02-08T20:22:01.711Z,8.27
2023-02-08T20:24:29.245Z,8.40
2023-02-08T20:26:56.720Z,9.57
2023-02-08T20:32:14.109Z,9.70
2023-02-08T20:34:53.879Z,10.27
2023-02-08T20:37:26.344Z,9.77
2023-02-08T20:39:53.835Z,9.87
2023-02-08T20:42:21.368Z,8.67
2023-02-08T20:45:15.330Z,10.03
2023-02-08T20:47:46.773Z,9.63
2023-02-08T20:53:16.718Z,11.97
2023-02-08T20:55:45.082Z,10.27
2023-02-08T20:58:13.285Z,10.03
2023-02-08T21:00:43.515Z,9.77
2023-02-08T21:03:13.282Z,10.83
2023-02-08T21:06:11.795Z,10.23
2023-02-08T21:08:39.362Z,11.20
2023-02-08T21:11:06.969Z,10.23
2023-02-08T21:16:32.785Z,10.30
2023-02-08T21:19:01.665Z,10.73
2023-02-08T21:21:53.344Z,10.10
2023-02-08T21:24:21.174Z,10.47
2023-02-08T21:26:48.616Z,10.37
2023-02-08T21:29:16.065Z,11.27
2023-02-08T21:31:43.665Z,9.93
2023-02-08T21:34:12.746Z,10.50
2023-02-08T21:36:40.494Z,11.33
2023-02-08T21:39:08.053Z,12.33
2023-02-08T21:41:35.507Z,11.03
2023-02-08T21:44:04.664Z,10.23
2023-02-08T21:46:32.829Z,12.07
2023-02-08T21:49:18.212Z,11.80
2023-02-08T21:52:04.889Z,10.70
2023-02-08T21:54:44.298Z,11.30
2023-02-08T21:57:15.593Z,11.37
2023-02-08T21:59:43.095Z,10.23
2023-02-08T22:02:14.558Z,11.13
2023-02-08T22:07:41.178Z,10.83
2023-02-08T22:10:09.962Z,11.13
2023-02-08T22:12:40.143Z,11.07
2023-02-08T22:15:08.595Z,11.67
2023-02-08T22:17:36.152Z,11.07
2023-02-08T22:23:05.788Z,11.07
2023-02-08T22:25:33.219Z,11.60
2023-02-08T22:31:03.742Z,10.63
2023-02-08T22:33:31.632Z,10.07
2023-02-08T22:38:50.055Z,10.37
2023-02-08T22:41:17.987Z,10.97
2023-02-08T22:43:45.731Z,10.57
2023-02-08T22:48:55.442Z,11.13
2023-02-08T22:54:25.423Z,11.30
2023-02-08T22:56:53.011Z,11.40
2023-02-08T22:59:20.918Z,11.30
2023-02-08T23:01:48.375Z,9.80
2023-02-08T23:04:17.194Z,10.53
2023-02-08T23:06:44.620Z,10.63
2023-02-08T23:12:14.412Z,10.57
2023-02-08T23:14:41.988Z,10.47
2023-02-08T23:17:13.421Z,11.90
2023-02-08T23:19:42.903Z,12.63
2023-02-08T23:22:10.353Z,12.10
2023-02-08T23:24:37.775Z,11.10
2023-02-08T23:27:05.260Z,10.83
2023-02-08T23:29:32.672Z,11.50
2023-02-08T23:32:00.117Z,11.27
2023-02-08T23:37:36.793Z,11.23
2023-02-08T23:43:06.380Z,11.17
2023-02-08T23:45:34.076Z,10.47
2023-02-08T23:50:59.078Z,11.00
2023-02-08T23:53:30.179Z,10.97
2023-02-08T23:58:57.884Z,11.03
